Time;durP1;ratioP1;P1;durP2;ratioP2;P2;SDS_P1;SDS_P2;PMS_P1;PMS_P2;Temp;Humidity;BMP_temperature;BMP_pressure;BME280_temperature;BME280_humidity;BME280_pressure;Samples;Min_cycle;Max_cycle;Signal;HPM_P1;HPM_P2
2021/05/01 00:00:05;;;;;;;11.37;8.90;;;;;;;11.97;91.53;100134.91;1786749;79;21512;-75
2021/05/01 00:02:34;;;;;;;11.73;9.10;;;;;;;11.95;91.60;100136.29;1788265;78;21368;-75
2021/05/01 00:05:03;;;;;;;14.13;9.30;;;;;;;11.95;91.65;100138.42;1781616;79;21439;-76
2021/05/01 00:07:31;;;;;;;13.77;8.93;;;;;;;11.97;91.67;100154.20;1781731;77;21408;-74
2021/05/01 00:09:58;;;;;;;11.83;9.17;;;;;;;11.95;91.66;100153.14;1781581;77;21944;-74
2021/05/01 00:12:26;;;;;;;11.67;8.40;;;;;;;11.92;91.70;100155.03;1779786;77;22265;-75
2021/05/01 00:14:54;;;;;;;12.00;8.53;;;;;;;11.91;91.73;100161.98;1782524;77;21431;-75
2021/05/01 00:17:21;;;;;;;11.90;8.57;;;;;;;11.86;91.78;100149.98;1781304;78;21820;-75
2021/05/01 00:19:49;;;;;;;12.50;8.67;;;;;;;11.84;91.79;100152.91;1787572;77;21471;-76
2021/05/01 00:22:18;;;;;;;11.10;8.18;;;;;;;11.81;91.76;100156.65;1783840;79;21890;-77
2021/05/01 00:24:45;;;;;;;13.53;9.67;;;;;;;11.80;91.81;100147.03;1786319;78;21354;-78
2021/05/01 00:27:13;;;;;;;12.68;9.50;;;;;;;11.79;91.83;100144.10;1781950;77;21213;-76
2021/05/01 00:29:42;;;;;;;12.20;9.10;;;;;;;11.81;91.83;100137.38;1783973;79;21184;-74
2021/05/01 00:32:10;;;;;;;11.90;9.60;;;;;;;11.84;91.77;100136.03;1791795;79;21746;-75
2021/05/01 00:34:38;;;;;;;11.43;9.20;;;;;;;11.84;91.68;100140.88;1778691;78;21340;-74
2021/05/01 00:37:06;;;;;;;12.17;9.50;;;;;;;11.85;91.58;100141.16;1777173;78;22301;-74
2021/05/01 00:39:37;;;;;;;13.27;9.57;;;;;;;11.87;91.46;100135.52;1787004;79;21433;-75
2021/05/01 00:42:05;;;;;;;11.63;8.80;;;;;;;11.88;91.32;100139.27;1790922;79;21876;-76
2021/05/01 00:44:34;;;;;;;12.70;9.18;;;;;;;11.89;91.21;100140.86;1758027;79;21443;-75
2021/05/01 00:47:02;;;;;;;11.03;9.37;;;;;;;11.90;91.05;100143.00;1789948;79;21746;-76
2021/05/01 00:49:30;;;;;;;11.93;9.30;;;;;;;11.88;90.81;100151.31;1794775;79;22100;-75
2021/05/01 00:51:58;;;;;;;11.87;8.93;;;;;;;11.87;90.63;100152.91;1794667;79;21187;-73
2021/05/01 00:54:27;;;;;;;11.80;9.55;;;;;;;11.84;90.36;100155.59;1790485;77;21859;-73
2021/05/01 00:56:56;;;;;;;11.35;9.03;;;;;;;11.80;90.07;100159.87;1797616;79;21257;-75
2021/05/01 00:59:24;;;;;;;13.98;9.23;;;;;;;11.76;89.79;100161.50;1792068;77;21216;-74
2021/05/01 01:01:54;;;;;;;11.70;8.40;;;;;;;11.69;89.47;100163.13;1770417;79;22081;-74
2021/05/01 01:04:23;;;;;;;10.20;8.00;;;;;;;11.61;89.15;100161.55;1808973;79;21145;-73
2021/05/01 01:06:51;;;;;;;11.17;8.00;;;;;;;11.55;88.88;100170.66;1800637;77;21745;-75
2021/05/01 01:09:21;;;;;;;12.10;8.35;;;;;;;11.46;88.66;100180.59;1795131;77;21765;-72
2021/05/01 01:11:50;;;;;;;10.70;8.35;;;;;;;11.39;88.46;100182.76;1764397;79;21240;-77
2021/05/01 01:14:19;;;;;;;9.85;8.08;;;;;;;11.32;88.41;100184.92;1785191;79;21383;-75
2021/05/01 01:16:47;;;;;;;8.48;7.05;;;;;;;11.26;88.35;100181.98;1782777;80;21199;-75
2021/05/01 01:19:16;;;;;;;11.15;7.87;;;;;;;11.22;88.25;100176.89;1792901;77;21199;-77
2021/05/01 01:21:46;;;;;;;11.97;9.60;;;;;;;11.18;88.16;100180.64;1797680;79;21624;-76
2021/05/01 01:24:16;;;;;;;8.10;6.53;;;;;;;11.13;88.13;100176.66;1794434;79;21162;-77
2021/05/01 01:26:45;;;;;;;10.10;8.10;;;;;;;11.10;88.08;100183.88;1788721;79;21224;-83
2021/05/01 01:29:14;;;;;;;12.13;9.58;;;;;;;11.04;87.87;100189.75;1796379;77;21392;-81
2021/05/01 01:31:43;;;;;;;11.33;8.45;;;;;;;10.98;87.81;100191.36;1788708;79;21461;-79
2021/05/01 01:34:12;;;;;;;13.95;9.13;;;;;;;10.91;87.97;100182.81;1794116;79;21152;-82
2021/05/01 01:36:40;;;;;;;12.80;9.68;;;;;;;10.87;88.07;100202.59;1812759;77;21565;-81
2021/05/01 01:39:08;;;;;;;12.30;9.28;;;;;;;10.86;88.18;100198.84;1793042;79;21230;-81
2021/05/01 01:41:36;;;;;;;9.85;7.30;;;;;;;10.86;88.36;100205.52;1799971;79;21153;-79
2021/05/01 01:44:06;;;;;;;7.62;5.67;;;;;;;10.85;88.39;100203.38;1801208;79;21652;-79
2021/05/01 01:46:34;;;;;;;5.05;3.70;;;;;;;10.84;88.24;100205.80;1787958;79;21132;-80
2021/05/01 01:49:02;;;;;;;4.50;3.37;;;;;;;10.77;87.91;100214.08;1789725;77;21235;-79
2021/05/01 01:51:30;;;;;;;3.92;3.15;;;;;;;10.68;87.63;100212.99;1795340;79;21481;-80
2021/05/01 01:53:59;;;;;;;4.00;3.20;;;;;;;10.61;87.35;100214.33;1673600;77;9999924;-87
2021/05/01 01:56:27;;;;;;;3.92;2.80;;;;;;;10.48;87.00;100216.44;1795181;79;21192;-81
2021/05/01 01:58:55;;;;;;;4.10;2.65;;;;;;;10.37;86.76;100224.17;1803449;77;21144;-81
2021/05/01 02:01:23;;;;;;;4.58;3.33;;;;;;;10.25;86.58;100227.56;1792046;79;21211;-80
2021/05/01 02:03:52;;;;;;;5.10;3.83;;;;;;;10.13;86.38;100225.12;1794294;79;21212;-81
2021/05/01 02:06:19;;;;;;;7.10;4.12;;;;;;;9.98;86.13;100227.21;1792913;79;21204;-82
2021/05/01 02:08:48;;;;;;;5.87;3.95;;;;;;;9.83;85.98;100229.80;1798252;79;21224;-81
2021/05/01 02:11:16;;;;;;;5.95;4.10;;;;;;;9.72;85.88;100230.29;1794612;79;21155;-81
2021/05/01 02:13:46;;;;;;;5.37;3.60;;;;;;;9.58;85.80;100240.63;1783752;80;21192;-82
2021/05/01 02:16:14;;;;;;;6.83;4.12;;;;;;;9.47;85.76;100244.80;1794842;79;21167;-82
2021/05/01 02:18:44;;;;;;;6.00;3.90;;;;;;;9.39;85.84;100246.89;1792673;77;21165;-81
2021/05/01 02:21:12;;;;;;;6.05;3.98;;;;;;;9.35;85.87;100248.47;1792515;79;21136;-81
2021/05/01 02:23:40;;;;;;;5.45;3.90;;;;;;;9.32;85.88;100255.64;1789199;79;21219;-85
2021/05/01 02:26:08;;;;;;;6.37;3.98;;;;;;;9.29;85.88;100252.16;1790097;77;22222;-78
2021/05/01 02:28:37;;;;;;;6.55;4.50;;;;;;;9.27;85.96;100256.12;1786450;79;21140;-80
2021/05/01 02:31:05;;;;;;;5.62;4.12;;;;;;;9.25;85.94;100252.94;1791856;79;21125;-80
2021/05/01 02:33:33;;;;;;;7.55;5.00;;;;;;;9.22;85.94;100258.23;1803254;79;21224;-79
2021/05/01 02:36:01;;;;;;;7.00;4.40;;;;;;;9.20;85.93;100258.21;1786198;79;21107;-79
2021/05/01 02:38:31;;;;;;;6.25;4.72;;;;;;;9.15;85.90;100258.98;1803799;79;22286;-78
2021/05/01 02:40:59;;;;;;;7.58;4.42;;;;;;;9.12;85.87;100263.48;1796848;79;21488;-79
2021/05/01 02:43:27;;;;;;;5.90;4.60;;;;;;;9.09;85.87;100262.66;1801556;79;21560;-78
2021/05/01 02:45:55;;;;;;;6.15;4.92;;;;;;;9.03;85.93;100263.14;1806131;79;21627;-79
2021/05/01 02:48:24;;;;;;;5.95;4.70;;;;;;;9.01;85.94;100264.45;1791455;79;21120;-79
2021/05/01 02:50:52;;;;;;;5.30;4.55;;;;;;;8.98;85.96;100267.61;1795718;79;21239;-78
2021/05/01 02:53:21;;;;;;;6.20;4.60;;;;;;;8.93;85.96;100265.72;1787787;77;21158;-78
2021/05/01 02:55:49;;;;;;;6.75;5.35;;;;;;;8.87;85.91;100268.86;1806105;79;21116;-78
2021/05/01 02:58:17;;;;;;;7.12;5.62;;;;;;;8.82;85.96;100266.16;1788707;78;21075;-79
2021/05/01 03:00:46;;;;;;;7.80;5.70;;;;;;;8.79;86.00;100267.99;1799566;77;21086;-78
2021/05/01 03:03:16;;;;;;;7.20;6.00;;;;;;;8.75;86.11;100272.19;1787007;79;21184;-79
2021/05/01 03:05:44;;;;;;;8.35;6.33;;;;;;;8.75;86.26;100270.86;1809771;79;21177;-79
2021/05/01 03:08:13;;;;;;;8.48;6.87;;;;;;;8.73;86.39;100282.31;1785009;79;21119;-79
2021/05/01 03:10:41;;;;;;;7.97;6.37;;;;;;;8.75;86.53;100288.70;1799350;77;21168;-79
2021/05/01 03:13:09;;;;;;;9.10;6.83;;;;;;;8.80;86.67;100288.77;1800311;79;21627;-78
2021/05/01 03:15:39;;;;;;;7.92;6.25;;;;;;;8.87;86.83;100290.70;1812631;79;21122;-78
2021/05/01 03:18:09;;;;;;;8.13;6.22;;;;;;;8.93;86.95;100291.02;1807750;79;21160;-78
2021/05/01 03:20:38;;;;;;;8.13;6.85;;;;;;;9.00;87.01;100290.28;1804283;77;21168;-78
2021/05/01 03:23:08;;;;;;;9.53;6.92;;;;;;;9.07;87.09;100292.20;1802809;79;21240;-79
2021/05/01 03:25:36;;;;;;;10.93;7.20;;;;;;;9.16;87.15;100302.69;1794159;79;21176;-78
2021/05/01 03:28:04;;;;;;;9.60;7.22;;;;;;;9.24;87.26;100303.27;1798524;79;22029;-78
2021/05/01 03:30:33;;;;;;;8.48;6.97;;;;;;;9.26;87.24;100301.97;1799452;77;21168;-78
2021/05/01 03:33:01;;;;;;;7.80;6.30;;;;;;;9.27;87.32;100302.77;1789728;79;21199;-78
2021/05/01 03:35:29;;;;;;;6.08;4.90;;;;;;;9.29;87.42;100305.99;1795984;79;21484;-78
2021/05/01 03:37:58;;;;;;;5.33;3.98;;;;;;;9.35;87.53;100304.45;1790498;79;21136;-78
2021/05/01 03:40:27;;;;;;;5.72;3.77;;;;;;;9.42;87.56;100310.09;1808893;77;21084;-78
2021/05/01 03:42:56;;;;;;;6.62;3.92;;;;;;;9.45;87.55;100308.25;1793855;79;21916;-78
2021/05/01 03:45:24;;;;;;;6.83;4.08;;;;;;;9.51;87.65;100317.37;1784795;80;21139;-78
2021/05/01 03:47:53;;;;;;;6.45;4.50;;;;;;;9.62;87.73;100317.70;1791673;79;21188;-78
2021/05/01 03:50:21;;;;;;;6.05;4.53;;;;;;;9.74;87.77;100315.36;1785225;79;21606;-78
2021/05/01 03:52:49;;;;;;;5.87;4.80;;;;;;;9.85;87.73;100315.72;1799731;77;21366;-77
2021/05/01 03:55:18;;;;;;;5.58;4.22;;;;;;;9.97;87.77;100322.17;1805557;79;21233;-79
2021/05/01 03:57:48;;;;;;;6.35;5.22;;;;;;;10.13;87.74;100329.73;1788927;79;21259;-78
2021/05/01 04:00:18;;;;;;;6.53;4.85;;;;;;;10.23;87.80;100329.78;1790472;79;21587;-77
2021/05/01 04:02:46;;;;;;;5.30;4.53;;;;;;;10.32;87.86;100333.59;1800057;77;21120;-78
2021/05/01 04:05:16;;;;;;;6.65;4.80;;;;;;;10.41;87.87;100329.37;1805724;79;21338;-78
2021/05/01 04:07:44;;;;;;;7.22;5.40;;;;;;;10.53;87.89;100341.97;1801928;79;21069;-78
2021/05/01 04:10:13;;;;;;;7.83;5.92;;;;;;;10.63;87.88;100339.88;1785305;79;21195;-79
2021/05/01 04:12:41;;;;;;;6.85;5.80;;;;;;;10.78;87.93;100342.56;1794261;77;21543;-78
2021/05/01 04:15:11;;;;;;;6.97;5.70;;;;;;;10.95;88.00;100353.56;1802589;77;21176;-77
2021/05/01 04:17:39;;;;;;;8.03;6.22;;;;;;;11.11;88.00;100361.88;1798613;79;22144;-79
2021/05/01 04:20:12;;;;;;;6.90;6.05;;;;;;;11.26;87.98;100353.89;1785123;79;21886;-77
2021/05/01 04:22:43;;;;;;;7.12;5.87;;;;;;;11.43;88.00;100354.97;1795092;77;21446;-77
2021/05/01 04:25:13;;;;;;;8.58;6.28;;;;;;;11.59;87.98;100357.64;1787764;79;21056;-77
2021/05/01 04:27:42;;;;;;;10.00;7.40;;;;;;;11.76;88.01;100358.16;1808242;79;21576;-77
2021/05/01 04:30:13;;;;;;;9.87;8.07;;;;;;;11.93;87.92;100360.58;1799011;79;21706;-78
2021/05/01 04:32:41;;;;;;;10.20;8.25;;;;;;;12.09;87.83;100351.44;1782590;79;21437;-77
2021/05/01 04:35:10;;;;;;;12.70;10.50;;;;;;;12.25;87.80;100355.42;1797527;79;21221;-77
2021/05/01 04:37:39;;;;;;;12.90;11.13;;;;;;;12.38;87.69;100353.50;1811960;79;21366;-77
2021/05/01 04:40:09;;;;;;;13.87;11.60;;;;;;;12.49;87.65;100354.25;1796395;79;21300;-78
2021/05/01 04:42:45;;;;;;;14.07;11.63;;;;;;;12.58;87.50;100356.63;1791417;77;21415;-78
2021/05/01 04:45:09;;;;;;;15.73;11.80;;;;;;;12.67;87.40;100359.01;1788623;79;21942;-77
2021/05/01 04:47:37;;;;;;;15.43;11.83;;;;;;;12.78;87.38;100359.20;1789230;79;21332;-77
2021/05/01 04:50:07;;;;;;;12.90;11.57;;;;;;;12.91;87.30;100367.18;1809373;79;21767;-77
2021/05/01 04:52:35;;;;;;;14.30;11.50;;;;;;;13.04;87.15;100364.43;1789399;77;21418;-78
2021/05/01 04:55:13;;;;;;;14.63;11.50;;;;;;;13.15;86.96;100358.70;1796410;79;21329;-77
2021/05/01 04:57:35;;;;;;;14.58;11.35;;;;;;;13.23;86.56;100354.65;1791577;79;22073;-77
2021/05/01 05:00:06;;;;;;;15.47;12.13;;;;;;;13.35;86.41;100356.98;1789161;79;21135;-78
2021/05/01 05:02:33;;;;;;;14.33;11.63;;;;;;;13.42;85.98;100353.98;1771928;77;22612;-77
2021/05/01 05:05:04;;;;;;;13.60;11.70;;;;;;;13.47;85.49;100344.56;1795444;79;21347;-77
2021/05/01 05:07:32;;;;;;;14.23;12.03;;;;;;;13.49;85.21;100350.44;1798490;79;22226;-78
2021/05/01 05:10:01;;;;;;;14.53;11.67;;;;;;;13.50;84.99;100350.72;1786294;79;21817;-76
2021/05/01 05:12:29;;;;;;;15.53;12.30;;;;;;;13.59;85.01;100342.33;1794937;79;21867;-79
2021/05/01 05:14:57;;;;;;;14.83;12.30;;;;;;;13.74;84.78;100347.53;1794982;79;21405;-77
2021/05/01 05:17:26;;;;;;;13.90;11.30;;;;;;;13.89;84.55;100348.48;1786022;79;21403;-77
2021/05/01 05:19:54;;;;;;;11.90;9.40;;;;;;;14.05;84.27;100352.63;1796666;79;22612;-77
2021/05/01 05:22:23;;;;;;;15.80;11.40;;;;;;;14.17;83.82;100350.31;1794573;79;21541;-77
2021/05/01 05:24:50;;;;;;;13.73;11.80;;;;;;;14.35;82.81;100352.02;1801499;77;21308;-77
2021/05/01 05:27:20;;;;;;;13.90;11.23;;;;;;;14.46;83.03;100352.14;1804057;79;21407;-78
2021/05/01 05:29:51;;;;;;;13.73;11.67;;;;;;;14.46;83.03;100352.14;1796527;79;21519;-77
2021/05/01 05:32:21;;;;;;;14.47;12.18;;;;;;;14.59;82.33;100344.75;1763177;79;21474;-77
2021/05/01 05:34:51;;;;;;;15.63;12.93;;;;;;;14.73;81.67;100324.67;1800943;77;21160;-81
2021/05/01 05:37:20;;;;;;;15.47;12.40;;;;;;;14.88;80.33;100343.84;1798301;79;21790;-78
2021/05/01 05:39:49;;;;;;;13.97;11.83;;;;;;;14.88;80.33;100343.84;1799923;79;21857;-75
2021/05/01 05:42:20;;;;;;;17.17;12.93;;;;;;;14.96;80.04;100342.62;1792327;77;22092;-78
2021/05/01 05:44:49;;;;;;;13.73;12.20;;;;;;;15.15;79.55;100349.89;1801215;77;21338;-78
2021/05/01 05:47:18;;;;;;;14.83;11.00;;;;;;;15.15;79.55;100349.89;1791748;79;22037;-78
2021/05/01 05:49:48;;;;;;;14.00;11.37;;;;;;;15.24;78.84;100357.01;1786214;79;21801;-78
2021/05/01 05:52:16;;;;;;;12.47;11.13;;;;;;;15.41;78.06;100347.05;1808373;79;22445;-78
2021/05/01 05:54:45;;;;;;;15.03;11.23;;;;;;;15.41;78.06;100347.05;1791728;79;22179;-76
2021/05/01 05:57:14;;;;;;;13.47;11.43;;;;;;;15.53;77.73;100347.12;1794894;79;21829;-77
2021/05/01 05:59:43;;;;;;;13.43;11.27;;;;;;;15.62;77.43;100352.88;1770667;79;21861;-77
2021/05/01 06:02:14;;;;;;;12.57;10.87;;;;;;;15.75;77.20;100354.59;1802339;79;22328;-78
2021/05/01 06:04:55;;;;;;;;;;;;;;;15.89;76.86;100354.89;1795582;77;22193;-76
2021/05/01 06:07:39;;;;;;;14.53;11.50;;;;;;;16.04;76.01;100362.42;1798342;79;20371;-78
2021/05/01 06:10:11;;;;;;;12.43;10.77;;;;;;;16.13;75.62;100356.05;1808504;79;22253;-77
2021/05/01 06:12:41;;;;;;;13.13;10.53;;;;;;;16.29;75.23;100356.56;1803496;77;21803;-78
2021/05/01 06:15:14;;;;;;;11.73;9.87;;;;;;;16.41;74.50;100351.44;1794638;77;21876;-77
2021/05/01 06:17:44;;;;;;;12.73;10.57;;;;;;;16.47;73.42;100356.19;1790723;77;21789;-78
2021/05/01 06:20:13;;;;;;;12.93;10.80;;;;;;;16.47;73.16;100357.53;1795407;79;21833;-77
2021/05/01 06:22:41;;;;;;;10.90;9.53;;;;;;;16.56;73.05;100362.47;1790834;79;21349;-77
2021/05/01 06:25:12;;;;;;;11.80;10.17;;;;;;;16.66;72.04;100358.77;1789531;77;21164;-77
2021/05/01 06:27:40;;;;;;;12.23;10.33;;;;;;;16.73;71.94;100355.66;1804051;77;21232;-78
2021/05/01 06:30:11;;;;;;;12.47;10.07;;;;;;;16.83;71.16;100359.51;1793627;79;21175;-77
2021/05/01 06:32:39;;;;;;;10.63;8.95;;;;;;;16.92;70.70;100365.78;1786539;79;21226;-77
2021/05/01 06:35:09;;;;;;;11.93;9.40;;;;;;;17.04;70.43;100359.28;1767500;78;21704;-77
2021/05/01 06:37:39;;;;;;;11.20;8.53;;;;;;;17.13;69.15;100358.58;1785010;78;21156;-76
2021/05/01 06:40:13;;;;;;;12.23;9.20;;;;;;;17.20;68.57;100360.29;1770998;77;21274;-77
2021/05/01 06:42:44;;;;;;;10.80;8.70;;;;;;;17.23;67.79;100363.17;1789094;79;21219;-77
2021/05/01 06:45:16;;;;;;;8.73;7.70;;;;;;;17.31;67.96;100363.80;1779887;78;21185;-78
2021/05/01 06:47:53;;;;;;;10.77;8.30;;;;;;;17.46;67.71;100369.93;1799157;77;21243;-76
2021/05/01 06:50:24;;;;;;;11.00;8.53;;;;;;;17.58;67.49;100374.23;1800485;79;21237;-76
2021/05/01 06:52:52;;;;;;;10.15;7.92;;;;;;;17.74;67.21;100372.73;1793754;77;21164;-78
2021/05/01 06:55:21;;;;;;;10.13;7.97;;;;;;;17.92;66.87;100374.20;1799271;77;21203;-77
2021/05/01 06:57:51;;;;;;;8.17;6.90;;;;;;;18.05;65.88;100374.11;1792443;79;21167;-76
2021/05/01 07:00:21;;;;;;;9.07;6.70;;;;;;;18.16;63.48;100367.07;1798901;77;21309;-77
2021/05/01 07:02:55;;;;;;;9.17;7.20;;;;;;;18.22;62.04;100368.53;1796005;77;21223;-78
2021/05/01 07:05:24;;;;;;;8.40;6.97;;;;;;;18.27;61.69;100374.60;1774974;79;21191;-76
2021/05/01 07:07:53;;;;;;;9.23;7.17;;;;;;;18.38;61.56;100369.70;1797007;77;21559;-77
2021/05/01 07:10:21;;;;;;;9.70;7.07;;;;;;;18.47;60.93;100373.23;1799000;77;21706;-77
2021/05/01 07:12:48;;;;;;;7.83;6.27;;;;;;;18.59;60.63;100375.87;1796303;77;21452;-77
2021/05/01 07:15:19;;;;;;;7.03;5.90;;;;;;;18.70;59.77;100366.36;1788586;77;21588;-78
2021/05/01 07:17:51;;;;;;;6.47;5.13;;;;;;;18.84;58.71;100368.95;1800248;79;21139;-79
2021/05/01 07:20:20;;;;;;;6.30;4.63;;;;;;;18.98;56.76;100364.17;1796699;77;21157;-78
2021/05/01 07:22:53;;;;;;;5.40;4.53;;;;;;;19.14;54.66;100363.15;1794001;79;21240;-77
2021/05/01 07:25:23;;;;;;;7.67;5.27;;;;;;;19.33;53.65;100358.20;1794549;79;21179;-77
2021/05/01 07:28:06;;;;;;;5.90;4.70;;;;;;;19.52;53.22;100361.14;1792902;77;21499;-77
2021/05/01 07:30:42;;;;;;;5.60;4.63;;;;;;;19.72;52.04;100357.77;1804571;77;21164;-78
2021/05/01 07:33:31;;;;;;;5.07;4.20;;;;;;;19.97;49.03;100362.86;1797280;79;21168;-77
2021/05/01 07:36:03;;;;;;;5.60;4.33;;;;;;;20.01;47.60;100365.73;1792544;79;21194;-77
2021/05/01 07:38:31;;;;;;;5.97;4.58;;;;;;;20.05;47.53;100361.25;1794626;77;21362;-77
2021/05/01 07:41:02;;;;;;;7.40;5.23;;;;;;;20.18;47.25;100361.59;1794511;79;21155;-78
2021/05/01 07:43:31;;;;;;;6.42;4.87;;;;;;;20.33;47.17;100365.66;1803184;79;21125;-78
2021/05/01 07:46:06;;;;;;;6.87;4.20;;;;;;;20.44;46.41;100364.74;1796232;79;21686;-77
2021/05/01 07:48:34;;;;;;;4.97;3.80;;;;;;;20.55;43.78;100359.19;1795582;77;21191;-77
2021/05/01 07:51:02;;;;;;;5.53;3.87;;;;;;;20.60;40.75;100354.38;1792129;77;21514;-77
2021/05/01 07:53:31;;;;;;;5.57;3.67;;;;;;;20.61;40.94;100357.88;1796772;79;21603;-76
2021/05/01 07:56:00;;;;;;;4.60;3.47;;;;;;;20.59;39.16;100358.19;1787791;77;21160;-77
2021/05/01 07:58:28;;;;;;;6.73;3.97;;;;;;;20.55;39.25;100351.84;1796605;77;21192;-74
2021/05/01 08:00:59;;;;;;;4.53;3.40;;;;;;;20.61;39.67;100355.16;1801268;77;22290;-78
2021/05/01 08:03:27;;;;;;;4.20;3.30;;;;;;;20.70;38.38;100356.47;1793174;77;21180;-77
2021/05/01 08:05:56;;;;;;;4.30;3.17;;;;;;;20.72;38.08;100355.00;1792585;77;21643;-77
2021/05/01 08:08:25;;;;;;;5.77;3.90;;;;;;;20.75;37.77;100364.41;1803576;77;21472;-76
2021/05/01 08:10:53;;;;;;;4.80;3.70;;;;;;;20.66;38.11;100365.81;1796436;77;21140;-76
2021/05/01 08:13:21;;;;;;;5.87;3.77;;;;;;;20.61;38.21;100369.52;1793708;77;21531;-77
2021/05/01 08:15:51;;;;;;;5.57;3.23;;;;;;;20.63;38.12;100367.82;1796799;77;22396;-78
2021/05/01 08:18:19;;;;;;;5.30;3.53;;;;;;;20.66;37.83;100368.52;1799789;77;22312;-79
2021/05/01 08:20:50;;;;;;;4.30;3.30;;;;;;;20.77;37.64;100368.39;1791598;77;21204;-77
2021/05/01 08:23:17;;;;;;;4.67;3.30;;;;;;;20.90;36.94;100368.47;1796018;77;21212;-77
2021/05/01 08:25:45;;;;;;;5.10;3.30;;;;;;;20.94;36.82;100363.95;1790152;77;21167;-77
2021/05/01 08:28:13;;;;;;;5.13;3.63;;;;;;;20.98;35.76;100363.52;1795239;77;21192;-76
2021/05/01 08:30:41;;;;;;;5.60;3.33;;;;;;;20.92;36.35;100384.63;1805287;77;21240;-77
2021/05/01 08:33:09;;;;;;;5.77;3.57;;;;;;;20.83;36.43;100384.72;1806975;77;21144;-77
2021/05/01 08:35:36;;;;;;;5.23;3.43;;;;;;;20.71;36.65;100384.62;1800649;77;21594;-77
2021/05/01 08:38:08;;;;;;;5.07;3.77;;;;;;;20.63;36.43;100382.75;1801364;77;21219;-77
2021/05/01 08:40:37;;;;;;;6.20;3.87;;;;;;;20.62;36.44;100378.45;1795863;77;21240;-78
2021/05/01 08:43:04;;;;;;;4.10;3.00;;;;;;;20.68;36.68;100375.78;1799077;77;21191;-76
2021/05/01 08:45:33;;;;;;;5.23;3.60;;;;;;;20.83;37.36;100377.93;1791172;77;21277;-77
2021/05/01 08:48:01;;;;;;;6.33;3.60;;;;;;;20.98;36.32;100375.17;1794603;77;21239;-76
2021/05/01 08:50:34;;;;;;;4.80;3.20;;;;;;;21.04;36.55;100379.84;1794841;77;21183;-77
2021/05/01 08:53:02;;;;;;;5.20;3.60;;;;;;;21.08;36.46;100390.27;1797343;77;22133;-78
2021/05/01 08:55:34;;;;;;;4.57;3.10;;;;;;;21.11;34.63;100391.53;1799560;77;21168;-77
2021/05/01 08:58:04;;;;;;;5.00;2.67;;;;;;;21.10;34.15;100378.52;1795760;77;21133;-78
2021/05/01 09:00:32;;;;;;;4.73;3.40;;;;;;;21.12;32.32;100382.25;1797743;79;21120;-77
2021/05/01 09:03:03;;;;;;;3.83;2.60;;;;;;;21.16;32.25;100379.91;1793295;79;21161;-78
2021/05/01 09:05:30;;;;;;;4.07;2.70;;;;;;;21.26;32.37;100380.08;1764551;78;22753;-78
2021/05/01 09:07:58;;;;;;;5.17;3.13;;;;;;;21.39;32.05;100378.20;1765471;79;21176;-77
2021/05/01 09:10:28;;;;;;;4.03;3.20;;;;;;;21.49;32.93;100380.53;1775063;79;21176;-75
2021/05/01 09:12:56;;;;;;;4.17;2.77;;;;;;;21.63;32.03;100382.95;1747401;79;21180;-75
2021/05/01 09:15:25;;;;;;;4.33;3.10;;;;;;;21.67;31.63;100385.22;1795884;79;21172;-75
2021/05/01 09:18:02;;;;;;;4.30;2.97;;;;;;;21.71;31.41;100380.13;1801120;79;21405;-76
2021/05/01 09:20:31;;;;;;;4.37;2.90;;;;;;;21.77;30.41;100377.42;1804694;77;21730;-76
2021/05/01 09:23:07;;;;;;;5.20;3.10;;;;;;;21.87;30.97;100374.05;1797880;79;21195;-78
2021/05/01 09:28:43;;;;;;;5.20;3.03;;;;;;;22.24;31.52;100366.73;1851706;76;26903;-76
2021/05/01 09:31:18;;;;;;;4.47;3.10;;;;;;;22.22;29.80;100375.25;1825090;77;21457;-78
2021/05/01 09:33:51;;;;;;;4.30;3.00;;;;;;;22.20;30.95;100374.00;1815242;77;21297;-77
2021/05/01 09:36:25;;;;;;;4.03;2.60;;;;;;;22.31;30.14;100368.89;1817714;77;21136;-79
2021/05/01 09:39:10;;;;;;;5.53;3.20;;;;;;;22.48;30.20;100368.67;1779288;77;38225;-77
2021/05/01 09:41:42;;;;;;;6.70;2.80;;;;;;;22.59;29.87;100368.42;1758566;80;21109;-77
2021/05/01 09:44:18;;;;;;;3.70;2.50;;;;;;;22.69;28.36;100361.14;1835010;77;26905;-81
2021/05/01 09:46:51;;;;;;;4.20;2.57;;;;;;;22.67;27.83;100368.88;1797258;79;21218;-76
2021/05/01 09:49:28;;;;;;;4.30;2.80;;;;;;;22.61;29.13;100369.45;1812882;77;21196;-76
2021/05/01 09:52:00;;;;;;;5.70;3.10;;;;;;;22.50;28.61;100370.47;1812466;78;22491;-72
2021/05/01 09:54:34;;;;;;;4.33;2.73;;;;;;;22.40;28.01;100376.37;1813445;78;21152;-73
2021/05/01 09:57:14;;;;;;;4.63;2.60;;;;;;;22.25;26.71;100379.23;1800514;79;21177;-72
2021/05/01 09:59:54;;;;;;;3.43;2.20;;;;;;;22.18;27.58;100371.63;1803074;79;21241;-72
2021/05/01 10:02:36;;;;;;;3.55;2.37;;;;;;;22.26;27.71;100372.64;1806776;77;21177;-68
2021/05/01 10:05:12;;;;;;;3.80;2.47;;;;;;;22.29;27.73;100366.52;1790871;79;21179;-69
2021/05/01 10:07:50;;;;;;;4.27;2.40;;;;;;;22.37;26.73;100366.17;1796493;77;21665;-67
2021/05/01 10:10:19;;;;;;;3.80;2.40;;;;;;;22.44;26.45;100357.69;1797834;77;21171;-68
2021/05/01 10:12:48;;;;;;;3.30;2.57;;;;;;;22.56;27.12;100355.50;1779057;79;21144;-68
2021/05/01 10:15:19;;;;;;;4.30;2.70;;;;;;;22.64;26.29;100362.76;1794160;79;21197;-68
2021/05/01 10:17:48;;;;;;;3.90;2.55;;;;;;;22.67;26.22;100362.08;1781173;79;22244;-69
2021/05/01 10:20:17;;;;;;;3.30;2.37;;;;;;;22.67;26.49;100359.35;1802652;78;21183;-69
2021/05/01 10:22:50;;;;;;;4.60;2.40;;;;;;;22.73;26.06;100356.38;1802768;79;21555;-69
2021/05/01 10:25:25;;;;;;;3.40;2.20;;;;;;;22.76;25.96;100349.67;1798703;79;21171;-70
2021/05/01 10:27:59;;;;;;;3.30;2.13;;;;;;;22.77;26.35;100355.91;1790155;77;21419;-69
2021/05/01 10:33:34;;;;;;;3.83;2.20;;;;;;;22.81;25.02;100351.38;1797223;77;21135;-67
2021/05/01 10:36:27;;;;;;;4.20;2.60;;;;;;;22.84;24.91;100350.13;1803996;79;21661;-69
2021/05/01 10:39:01;;;;;;;3.40;2.20;;;;;;;22.73;25.44;100355.80;1687744;83;21604;-69
2021/05/01 10:44:07;;;;;;;4.20;2.60;;;;;;;22.75;25.18;100354.91;1829503;77;26790;-69
2021/05/01 10:46:41;;;;;;;4.07;2.40;;;;;;;22.83;24.83;100351.81;1819476;77;21707;-68
2021/05/01 10:49:10;;;;;;;3.80;2.30;;;;;;;22.94;25.04;100362.50;1799865;77;21513;-68
2021/05/01 10:51:45;;;;;;;3.30;2.40;;;;;;;23.01;25.10;100355.88;1798451;78;21670;-68
2021/05/01 10:54:16;;;;;;;3.77;2.50;;;;;;;23.13;24.80;100357.75;1813372;77;21167;-69
2021/05/01 10:56:55;;;;;;;4.28;2.47;;;;;;;23.21;25.16;100351.95;1808911;78;21190;-69
2021/05/01 11:02:15;;;;;;;3.10;2.50;;;;;;;23.37;26.28;100344.62;1805266;77;27313;-68
2021/05/01 11:04:48;;;;;;;4.77;2.70;;;;;;;23.32;26.58;100356.55;1779136;79;21178;-68
2021/05/01 11:07:44;;;;;;;4.63;3.20;;;;;;;23.28;27.13;100350.78;1760263;80;21251;-68
2021/05/01 11:10:15;;;;;;;5.40;2.83;;;;;;;23.24;26.68;100345.81;1753486;80;21422;-69
2021/05/01 11:12:52;;;;;;;4.33;2.60;;;;;;;23.32;27.45;100342.13;1794756;78;21497;-69
2021/05/01 11:15:22;;;;;;;4.80;2.27;;;;;;;23.50;27.08;100336.59;1790700;79;21192;-69
2021/05/01 11:18:02;;;;;;;3.50;2.50;;;;;;;23.61;26.90;100332.20;1797858;78;21203;-68
2021/05/01 11:20:30;;;;;;;4.13;2.80;;;;;;;23.67;26.47;100326.50;1789747;78;22352;-68
2021/05/01 11:22:57;;;;;;;3.60;2.70;;;;;;;23.54;26.73;100338.84;1796914;78;21172;-70
2021/05/01 11:25:28;;;;;;;4.43;2.17;;;;;;;23.56;27.46;100328.39;1795989;79;21216;-71
2021/05/01 11:27:56;;;;;;;3.70;2.53;;;;;;;23.69;27.69;100329.68;1761106;80;21704;-71
2021/05/01 11:30:26;;;;;;;5.17;2.70;;;;;;;23.74;27.11;100328.07;1804224;79;21192;-68
2021/05/01 11:32:54;;;;;;;4.30;3.00;;;;;;;23.80;26.87;100328.03;1780535;79;22131;-69
2021/05/01 11:35:29;;;;;;;5.70;2.87;;;;;;;23.86;27.10;100323.91;1778739;80;21255;-70
2021/05/01 11:38:02;;;;;;;6.30;3.40;;;;;;;23.90;27.52;100321.26;1790241;79;21182;-68
2021/05/01 11:40:55;;;;;;;5.20;3.33;;;;;;;23.89;27.05;100313.66;1801510;78;21630;-68
2021/05/01 11:43:29;;;;;;;3.80;3.00;;;;;;;23.70;27.50;100322.53;1744444;81;21132;-68
2021/05/01 11:46:12;;;;;;;4.30;2.90;;;;;;;23.50;27.86;100316.73;1751126;80;21422;-70